Buoy 46770

sailwx.info

Track history (hours):
 
Tides and Currents Weather Stations Pressure Air Temp Water Temp Dewpoint Dewpoint Depression Visibility Wind Speed Wind Dir Waves Ship Positions

Drifting buoy 46770

Last reported at 2017-Jun-24 15:00 UTC. Time now 2017-Jun-24 17:31 UTC.
Position N 30°53' W 126°32'.

Barometer 1015.7 mb
Water temperature 17.6 ° C

Date/timePositionNaut miles runAvg speedWind from/ knotsBaromVisibWave heightAir tempDewpointWater temp
2017-Jun-24 15:00N 30°53' W 126°32'0 0.0 1015.7 17.6
2017-Jun-24 14:00N 30°53' W 126°32'1 0.8 1015.2 17.6
2017-Jun-24 13:00N 30°53' W 126°33'1 0.6 1014.8 17.6
2017-Jun-24 12:00N 30°52' W 126°33'0 0.0 1014.3 17.6
2017-Jun-24 11:00N 30°52' W 126°33'1 1.3 1014.1 17.6
2017-Jun-24 10:00N 30°51' W 126°32'1 0.2 1014.1 17.7
2017-Jun-24 07:00N 30°50' W 126°32'1 0.5 1014.5 17.8
2017-Jun-24 06:00N 30°50' W 126°32'1 0.5 1014.3 17.8
2017-Jun-24 05:00N 30°50' W 126°32'1 1.0 1014.0 17.8
2017-Jun-24 04:00N 30°50' W 126°31'1 0.5 1013.6 17.8
2017-Jun-24 03:00N 30°50' W 126°31'1 0.5 1013.3 17.9
2017-Jun-24 02:00N 30°50' W 126°31'1 0.5 1012.9 17.9
2017-Jun-24 01:00N 30°50' W 126°32'1 0.6 1012.7 17.9
2017-Jun-24 00:00N 30°50' W 126°32'0 0.0 1012.7 17.9
2017-Jun-23 23:00N 30°50' W 126°32'0 0.0 1013.1 17.9
2017-Jun-23 22:00N 30°50' W 126°32'0 0.0 1013.1 17.9
2017-Jun-23 21:00N 30°50' W 126°32'0 0.0 1013.0 17.8
2017-Jun-23 19:00N 30°50' W 126°32'1 0.8 1013.0 17.6
2017-Jun-23 18:00N 30°49' W 126°31'1 1.0 1012.7 17.6
2017-Jun-23 17:00N 30°49' W 126°32'0 0.0 1012.3 17.6
2017-Jun-23 16:00N 30°49' W 126°32'0 0.0 1012.2 17.6
2017-Jun-23 15:00N 30°49' W 126°32'1 0.8 1011.7 17.6
2017-Jun-23 14:00N 30°49' W 126°33'1 0.8 1011.1 17.6
2017-Jun-23 13:00N 30°49' W 126°32'1 0.5 1010.8 17.6
2017-Jun-23 12:00N 30°49' W 126°33'1 0.8 1010.6 17.6
2017-Jun-23 11:00N 30°49' W 126°34'1 0.8 1010.3 17.6
2017-Jun-23 10:00N 30°49' W 126°33'1 0.2 1010.6 17.6
2017-Jun-23 06:00N 30°49' W 126°32'0 0.0 1011.0 17.6
2017-Jun-23 05:00N 30°49' W 126°32'0 0.0 1010.7 17.6
2017-Jun-23 04:00N 30°49' W 126°32'1 0.6 1010.1 17.6
2017-Jun-23 03:00N 30°49' W 126°32'0 0.0 1009.9 17.6
2017-Jun-23 02:00N 30°49' W 126°32'1 0.5 1010.0 17.6
2017-Jun-23 01:00N 30°49' W 126°32'0 0.0 1009.8 17.6
2017-Jun-23 00:00N 30°49' W 126°32'1 0.6 1010.3 17.6
2017-Jun-22 23:00N 30°50' W 126°32'1 0.6 1010.6 17.6
2017-Jun-22 22:00N 30°49' W 126°32'3 0.7 1011.1 17.6
2017-Jun-22 18:00N 30°52' W 126°31'0 0.0 1011.9 17.4
2017-Jun-22 17:00N 30°52' W 126°31'1 0.6 1011.9 17.4
2017-Jun-22 16:00N 30°52' W 126°31'1 0.5 1011.9 17.4
2017-Jun-22 15:00N 30°52' W 126°31'1 0.8 1011.8 17.4
2017-Jun-22 14:00N 30°53' W 126°31'1 0.6 1011.6 17.4
2017-Jun-22 13:00N 30°53' W 126°31'0 0.0 1011.8 17.4
2017-Jun-22 12:00N 30°53' W 126°31'1 0.8 1011.7 17.3
2017-Jun-22 11:00N 30°54' W 126°30'0 0.0 1012.3 17.4
2017-Jun-22 10:00N 30°54' W 126°30'1 0.2 1012.9 17.4
2017-Jun-22 06:00N 30°55' W 126°29'1 1.2 1014.6 17.9
2017-Jun-22 05:00N 30°55' W 126°28'1 1.3 1014.6 18.0
2017-Jun-22 04:00N 30°56' W 126°28'1 1.2 1014.6 18.1
2017-Jun-22 03:00N 30°57' W 126°26'0 0.0 1014.7 18.2
2017-Jun-22 02:00N 30°57' W 126°26'1 1.3 1014.7 18.2
2017-Jun-22 01:00N 30°58' W 126°26'1 0.5 1014.8 18.2
2017-Jun-22 00:00N 30°58' W 126°25'1 0.6 1015.4 18.2
2017-Jun-21 22:00N 30°59' W 126°25'3 1.0 1016.5 18.1
2017-Jun-21 19:00N 31°02' W 126°25'1 0.6 1018.2 18.1
2017-Jun-21 18:00N 31°03' W 126°25'1 0.6 1018.4 18.0
2017-Jun-21 17:00N 31°04' W 126°25'1 0.8 1018.7 18.0
2017-Jun-21 16:00N 31°04' W 126°26'1 0.8 1018.6 18.0
2017-Jun-21 15:00N 31°05' W 126°26'1 0.8 1018.4 18.0
2017-Jun-21 14:00N 31°05' W 126°26'2 1.6 1017.9 18.0
2017-Jun-21 13:00N 31°07' W 126°27'0 0.0 1017.7 18.1
2017-Jun-21 12:00N 31°07' W 126°27'1 1.2 1017.7 18.1
2017-Jun-21 11:00N 31°08' W 126°27'1 1.3 1017.9 18.1
2017-Jun-21 10:00N 31°07' W 126°26'1 0.4 1018.3 18.1
2017-Jun-21 07:00N 31°08' W 126°27'1 0.8 1019.5 18.1
2017-Jun-21 06:00N 31°08' W 126°26'0 0.0 1019.6 18.1
2017-Jun-21 05:00N 31°08' W 126°26'1 0.6 1019.6 18.1
2017-Jun-21 04:00N 31°09' W 126°26'1 0.8 1019.3 18.2
2017-Jun-21 03:00N 31°10' W 126°26'1 0.5 1019.2 18.2
2017-Jun-21 02:00N 31°10' W 126°25'1 0.6 1019.0 18.2
2017-Jun-21 01:00N 31°10' W 126°25'2 1.9 1019.0 18.2
2017-Jun-21 00:00N 31°12' W 126°25'3 3.0 1019.3 18.2
2017-Jun-20 23:00N 31°15' W 126°24'0 0.0 1019.4 18.2
2017-Jun-20 22:00N 31°15' W 126°24'2 0.4 1019.8 18.1
2017-Jun-20 18:00N 31°16' W 126°26'1 1.0 1020.9 18.0
2017-Jun-20 17:00N 31°16' W 126°25'1 0.8 1020.4 18.0
2017-Jun-20 16:00N 31°16' W 126°25'0 0.0 1020.0 18.0
2017-Jun-20 15:00N 31°16' W 126°25'1 0.6 1019.1 17.9
2017-Jun-20 14:00N 31°17' W 126°25'1 0.5 1018.9 17.9
2017-Jun-20 13:00N 31°17' W 126°25'1 1.2
2017-Jun-20 12:00N 31°17' W 126°26'0 0.0 1018.2 17.9
2017-Jun-20 11:00N 31°17' W 126°26'0 0.0 1018.4 17.9
2017-Jun-20 10:00N 31°17' W 126°26'2 0.5 1018.2 17.9
2017-Jun-20 06:00N 31°19' W 126°25'1 0.8 1018.7 18.0
2017-Jun-20 05:00N 31°20' W 126°25'1 0.8 1018.4 18.0
2017-Jun-20 04:00N 31°20' W 126°24'0 0.0 1017.8 18.0
2017-Jun-20 03:00N 31°20' W 126°24'1 1.2 1017.2 18.0
2017-Jun-20 02:00N 31°22' W 126°24'0 0.0 1017.1 18.1
2017-Jun-20 01:00N 31°22' W 126°24'2 1.6 1016.9 18.1
2017-Jun-20 00:00N 31°23' W 126°23'0 0.0 1016.8 18.1
2017-Jun-19 23:00N 31°23' W 126°23'0 0.0 1017.0 18.1
2017-Jun-19 22:00N 31°23' W 126°23'2 2.4 1017.2 18.1
2017-Jun-19 21:00N 31°25' W 126°25'1 0.3 1017.4 18.0
2017-Jun-19 19:00N 31°25' W 126°25'1 0.8 1017.3 18.0
2017-Jun-19 18:00N 31°26' W 126°25'1 0.8 1017.2 18.0
2017-Jun-19 17:00N 31°26' W 126°25'1 0.5 1017.1 18.0
2017-Jun-19 16:00N 31°26' W 126°25'1 1.3 1017.1 18.0
2017-Jun-19 15:00N 31°28' W 126°25'1 1.2 1016.6 18.0
2017-Jun-19 14:00N 31°29' W 126°25'1 1.0 1016.3 18.0
2017-Jun-19 13:00N 31°29' W 126°26'0 0.0 1015.4 18.0
2017-Jun-19 12:00N 31°29' W 126°26'1 1.2 1015.2 18.0
2017-Jun-19 11:00N 31°29' W 126°27'4 0.7 1015.2 18.0
2017-Jun-19 06:00N 31°31' W 126°23'0 0.0 1015.6 18.0
2017-Jun-19 05:00N 31°31' W 126°23'2 1.6 1015.4 18.0
2017-Jun-19 04:00N 31°32' W 126°22'1 0.6 1014.8 18.0
2017-Jun-19 03:00N 31°33' W 126°22'1 0.8 1012.9 18.0
2017-Jun-19 02:00N 31°34' W 126°22'2 1.8 1013.2 18.0
2017-Jun-19 01:00N 31°35' W 126°22'0 0.0 1015.3 18.0
2017-Jun-19 00:00N 31°35' W 126°22'0 0.0 1015.8 18.0
2017-Jun-18 23:00N 31°35' W 126°22'1 0.7 1015.8 18.0
2017-Jun-18 21:00N 31°37' W 126°21'1 0.7 1016.3 18.0
2017-Jun-18 19:00N 31°38' W 126°20'1 0.8 1016.4 18.0
2017-Jun-18 18:00N 31°38' W 126°21'1 1.2 1016.4 17.9
2017-Jun-18 17:00N 31°39' W 126°20'1 1.3 1016.0 17.9
2017-Jun-18 16:00N 31°40' W 126°20'1 0.8 1016.1 17.9
2017-Jun-18 15:00N 31°41' W 126°20'0 0.0 1016.0 17.9
2017-Jun-18 14:00N 31°41' W 126°20'2 1.5 1016.1 17.9
2017-Jun-18 13:00N 31°41' W 126°22'3 3.2 1015.7 17.9
2017-Jun-18 12:00N 31°43' W 126°19'3 2.6 1015.8 17.8
2017-Jun-18 11:00N 31°41' W 126°20'3 2.6 1015.8 17.8
2017-Jun-18 10:00N 31°43' W 126°19'1 0.2 1016.4 17.7
2017-Jun-18 06:00N 31°44' W 126°19'0 0.0 1018.7 17.7
2017-Jun-18 05:00N 31°44' W 126°19'1 0.6 1018.5 17.8
2017-Jun-18 04:00N 31°44' W 126°19'1 0.6 1018.1 17.8
2017-Jun-18 03:00N 31°45' W 126°19'1 1.2 1017.9 17.8
2017-Jun-18 02:00N 31°46' W 126°19'1 1.2 1017.8 17.8
2017-Jun-18 01:00N 31°47' W 126°19'0 0.0 1018.1 17.8
2017-Jun-18 00:00N 31°47' W 126°19'0 0.0 1018.5 17.8
2017-Jun-17 23:00N 31°47' W 126°19'2 1.2 1018.9 17.8
2017-Jun-17 21:00N 31°50' W 126°19'1 0.4 1019.1 17.8
2017-Jun-17 19:00N 31°49' W 126°19'1 0.8 1019.6 17.8
2017-Jun-17 18:00N 31°50' W 126°19'1 1.2 1019.6 17.7
2017-Jun-17 17:00N 31°51' W 126°19'0 0.0 1019.7 17.7
2017-Jun-17 16:00N 31°51' W 126°19'1 0.5 1019.7 17.7
2017-Jun-17 15:00N 31°51' W 126°19'1 0.5 1019.6 17.6
2017-Jun-17 14:00N 31°51' W 126°19'1 1.0 1019.2 17.6
2017-Jun-17 13:00N 31°51' W 126°18'1 0.6 1019.0 17.6
2017-Jun-17 12:00N 31°52' W 126°18'1 0.6 1019.2 17.7
2017-Jun-17 11:00N 31°52' W 126°18'2 1.9 1019.6 17.7
2017-Jun-17 10:00N 31°54' W 126°17'1 0.2 1019.8 17.7
2017-Jun-17 06:00N 31°55' W 126°17'1 1.2 1020.8 17.7
2017-Jun-17 05:00N 31°56' W 126°17'1 0.8 1020.5 17.7
2017-Jun-17 04:00N 31°56' W 126°16'1 0.6 1020.1 17.8
2017-Jun-17 03:00N 31°57' W 126°16'1 0.5 1020.0 17.8
2017-Jun-17 02:00N 31°57' W 126°17'2 1.8 1019.9 17.8
2017-Jun-17 01:00N 31°59' W 126°17'0 0.0 1019.9 17.8
2017-Jun-17 00:00N 31°59' W 126°17'1 0.5 1020.2 17.8
2017-Jun-16 23:00N 31°59' W 126°17'0 0.0 1020.7 17.8
2017-Jun-16 22:00N 31°59' W 126°17'0 0.0 1021.1 17.8
2017-Jun-16 21:00N 31°59' W 126°17'1 0.6 1021.5 17.8
2017-Jun-16 19:00N 32°00' W 126°17'1 0.8 1022.3 17.8
2017-Jun-16 18:00N 32°01' W 126°18'1 0.5 1022.3 17.8
2017-Jun-16 17:00N 32°01' W 126°17'0 0.0 1022.3 17.8
2017-Jun-16 16:00N 32°01' W 126°17'0 0.0 1022.2 17.7
2017-Jun-16 15:00N 32°01' W 126°17'1 1.2 1022.0 17.7
2017-Jun-16 14:00N 32°01' W 126°16'0 0.0 1021.7 17.6
2017-Jun-16 13:00N 32°01' W 126°16'2 1.6 1021.6 17.6
2017-Jun-16 12:00N 32°02' W 126°15'0 0.0 1021.5 17.5
2017-Jun-16 11:00N 32°02' W 126°15'3 3.0 1021.5 17.5
2017-Jun-16 10:00N 32°05' W 126°15'0 0.0 1021.8 17.5
2017-Jun-16 07:00N 32°05' W 126°15'1 0.8 1022.7 17.5
2017-Jun-16 06:00N 32°06' W 126°16'1 0.8 1022.8 17.5
2017-Jun-16 05:00N 32°07' W 126°15'1 1.2 1022.7 17.5
2017-Jun-16 04:00N 32°08' W 126°15'1 0.8 1022.5 17.6
2017-Jun-16 03:00N 32°07' W 126°16'1 0.6 1022.4 17.6
2017-Jun-16 02:00N 32°08' W 126°16'0 0.0 1022.3 17.6
2017-Jun-16 01:00N 32°08' W 126°16'1 0.6 1022.4 17.6
2017-Jun-16 00:00N 32°08' W 126°16'1 0.6 1022.6 17.6
2017-Jun-15 23:00N 32°09' W 126°16'0 0.0 1022.8 17.6
2017-Jun-15 22:00N 32°09' W 126°16'0 0.0 1023.0 17.6
2017-Jun-15 21:00N 32°09' W 126°16'2 1.2 1023.0 17.6
2017-Jun-15 19:00N 32°11' W 126°15'0 0.0 1023.2 17.6
2017-Jun-15 18:00N 32°11' W 126°15'1 0.8 1023.2 17.6
2017-Jun-15 17:00N 32°12' W 126°14'0 0.0 1022.9 17.6
2017-Jun-15 16:00N 32°12' W 126°14'1 1.2 1022.6 17.6
2017-Jun-15 15:00N 32°13' W 126°14'0 0.0 1022.0 17.6
2017-Jun-15 14:00N 32°13' W 126°14'1 0.5 1021.6 17.6
2017-Jun-15 13:00N 32°13' W 126°14'1 1.2 1021.2 17.6
2017-Jun-15 12:00N 32°14' W 126°14'0 0.0 1020.9 17.6
2017-Jun-15 11:00N 32°14' W 126°14'2 1.8 1020.8 17.6
2017-Jun-15 10:00N 32°16' W 126°14'1 0.1 1020.9 17.7
2017-Jun-15 06:00N 32°17' W 126°14'1 0.6 1021.9 17.7
2017-Jun-15 05:00N 32°17' W 126°14'1 0.6 1021.3 17.7
2017-Jun-15 04:00N 32°18' W 126°14'1 0.5 1021.0 17.7
2017-Jun-15 03:00N 32°18' W 126°13'1 0.5 1020.7 17.7
2017-Jun-15 02:00N 32°18' W 126°14'1 0.6 1020.6 17.7
2017-Jun-15 01:00N 32°19' W 126°14'1 0.8 1020.5 17.7
2017-Jun-15 00:00N 32°19' W 126°13'1 0.8 1020.7 17.7
2017-Jun-14 23:00N 32°20' W 126°13'0 0.0 1020.8 17.6
2017-Jun-14 22:00N 32°20' W 126°13'2 0.6 1021.0 17.6
2017-Jun-14 19:00N 32°22' W 126°13'0 0.0 1021.7 17.5
2017-Jun-14 18:00N 32°22' W 126°13'0 0.0 1021.7 17.5
2017-Jun-14 17:00N 32°22' W 126°13'1 0.8 1021.3 17.5
2017-Jun-14 16:00N 32°22' W 126°13'1 0.8 1021.3 17.4
2017-Jun-14 15:00N 32°23' W 126°13'   1021.1 17.4
Track history (hours):
 
Tides and Currents Weather Stations Pressure Air Temp Water Temp Dewpoint Dewpoint Depression Visibility Wind Speed Wind Dir Waves Ship Positions

Drifting buoy 46770

Last reported at 2017-Jun-24 15:00 UTC. Time now 2017-Jun-24 17:31 UTC.
Position N 30°53' W 126°32'.

Barometer 1015.7 mb
Water temperature 17.6 ° C

Date/timePositionNaut miles runAvg speedWind from/ knotsBaromVisibWave heightAir tempDewpointWater temp
2017-Jun-24 15:00N 30°53' W 126°32'0 0.0 1015.7 17.6
2017-Jun-24 14:00N 30°53' W 126°32'1 0.8 1015.2 17.6
2017-Jun-24 13:00N 30°53' W 126°33'1 0.6 1014.8 17.6
2017-Jun-24 12:00N 30°52' W 126°33'0 0.0 1014.3 17.6
2017-Jun-24 11:00N 30°52' W 126°33'1 1.3 1014.1 17.6
2017-Jun-24 10:00N 30°51' W 126°32'1 0.2 1014.1 17.7
2017-Jun-24 07:00N 30°50' W 126°32'1 0.5 1014.5 17.8
2017-Jun-24 06:00N 30°50' W 126°32'1 0.5 1014.3 17.8
2017-Jun-24 05:00N 30°50' W 126°32'1 1.0 1014.0 17.8
2017-Jun-24 04:00N 30°50' W 126°31'1 0.5 1013.6 17.8
2017-Jun-24 03:00N 30°50' W 126°31'1 0.5 1013.3 17.9
2017-Jun-24 02:00N 30°50' W 126°31'1 0.5 1012.9 17.9
2017-Jun-24 01:00N 30°50' W 126°32'1 0.6 1012.7 17.9
2017-Jun-24 00:00N 30°50' W 126°32'0 0.0 1012.7 17.9
2017-Jun-23 23:00N 30°50' W 126°32'0 0.0 1013.1 17.9
2017-Jun-23 22:00N 30°50' W 126°32'0 0.0 1013.1 17.9
2017-Jun-23 21:00N 30°50' W 126°32'0 0.0 1013.0 17.8
2017-Jun-23 19:00N 30°50' W 126°32'1 0.8 1013.0 17.6
2017-Jun-23 18:00N 30°49' W 126°31'1 1.0 1012.7 17.6
2017-Jun-23 17:00N 30°49' W 126°32'0 0.0 1012.3 17.6
2017-Jun-23 16:00N 30°49' W 126°32'0 0.0 1012.2 17.6
2017-Jun-23 15:00N 30°49' W 126°32'1 0.8 1011.7 17.6
2017-Jun-23 14:00N 30°49' W 126°33'1 0.8 1011.1 17.6
2017-Jun-23 13:00N 30°49' W 126°32'1 0.5 1010.8 17.6
2017-Jun-23 12:00N 30°49' W 126°33'1 0.8 1010.6 17.6
2017-Jun-23 11:00N 30°49' W 126°34'1 0.8 1010.3 17.6
2017-Jun-23 10:00N 30°49' W 126°33'1 0.2 1010.6 17.6
2017-Jun-23 06:00N 30°49' W 126°32'0 0.0 1011.0 17.6
2017-Jun-23 05:00N 30°49' W 126°32'0 0.0 1010.7 17.6
2017-Jun-23 04:00N 30°49' W 126°32'1 0.6 1010.1 17.6
2017-Jun-23 03:00N 30°49' W 126°32'0 0.0 1009.9 17.6
2017-Jun-23 02:00N 30°49' W 126°32'1 0.5 1010.0 17.6
2017-Jun-23 01:00N 30°49' W 126°32'0 0.0 1009.8 17.6
2017-Jun-23 00:00N 30°49' W 126°32'1 0.6 1010.3 17.6
2017-Jun-22 23:00N 30°50' W 126°32'1 0.6 1010.6 17.6
2017-Jun-22 22:00N 30°49' W 126°32'3 0.7 1011.1 17.6
2017-Jun-22 18:00N 30°52' W 126°31'0 0.0 1011.9 17.4
2017-Jun-22 17:00N 30°52' W 126°31'1 0.6 1011.9 17.4
2017-Jun-22 16:00N 30°52' W 126°31'1 0.5 1011.9 17.4
2017-Jun-22 15:00N 30°52' W 126°31'1 0.8 1011.8 17.4
2017-Jun-22 14:00N 30°53' W 126°31'1 0.6 1011.6 17.4
2017-Jun-22 13:00N 30°53' W 126°31'0 0.0 1011.8 17.4
2017-Jun-22 12:00N 30°53' W 126°31'1 0.8 1011.7 17.3
2017-Jun-22 11:00N 30°54' W 126°30'0 0.0 1012.3 17.4
2017-Jun-22 10:00N 30°54' W 126°30'1 0.2 1012.9 17.4
2017-Jun-22 06:00N 30°55' W 126°29'1 1.2 1014.6 17.9
2017-Jun-22 05:00N 30°55' W 126°28'1 1.3 1014.6 18.0
2017-Jun-22 04:00N 30°56' W 126°28'1 1.2 1014.6 18.1
2017-Jun-22 03:00N 30°57' W 126°26'0 0.0 1014.7 18.2
2017-Jun-22 02:00N 30°57' W 126°26'1 1.3 1014.7 18.2
2017-Jun-22 01:00N 30°58' W 126°26'1 0.5 1014.8 18.2
2017-Jun-22 00:00N 30°58' W 126°25'1 0.6 1015.4 18.2
2017-Jun-21 22:00N 30°59' W 126°25'3 1.0 1016.5 18.1
2017-Jun-21 19:00N 31°02' W 126°25'1 0.6 1018.2 18.1
2017-Jun-21 18:00N 31°03' W 126°25'1 0.6 1018.4 18.0
2017-Jun-21 17:00N 31°04' W 126°25'1 0.8 1018.7 18.0
2017-Jun-21 16:00N 31°04' W 126°26'1 0.8 1018.6 18.0
2017-Jun-21 15:00N 31°05' W 126°26'1 0.8 1018.4 18.0
2017-Jun-21 14:00N 31°05' W 126°26'2 1.6 1017.9 18.0
2017-Jun-21 13:00N 31°07' W 126°27'0 0.0 1017.7 18.1
2017-Jun-21 12:00N 31°07' W 126°27'1 1.2 1017.7 18.1
2017-Jun-21 11:00N 31°08' W 126°27'1 1.3 1017.9 18.1
2017-Jun-21 10:00N 31°07' W 126°26'1 0.4 1018.3 18.1
2017-Jun-21 07:00N 31°08' W 126°27'1 0.8 1019.5 18.1
2017-Jun-21 06:00N 31°08' W 126°26'0 0.0 1019.6 18.1
2017-Jun-21 05:00N 31°08' W 126°26'1 0.6 1019.6 18.1
2017-Jun-21 04:00N 31°09' W 126°26'1 0.8 1019.3 18.2
2017-Jun-21 03:00N 31°10' W 126°26'1 0.5 1019.2 18.2
2017-Jun-21 02:00N 31°10' W 126°25'1 0.6 1019.0 18.2
2017-Jun-21 01:00N 31°10' W 126°25'2 1.9 1019.0 18.2
2017-Jun-21 00:00N 31°12' W 126°25'3 3.0 1019.3 18.2
2017-Jun-20 23:00N 31°15' W 126°24'0 0.0 1019.4 18.2
2017-Jun-20 22:00N 31°15' W 126°24'2 0.4 1019.8 18.1
2017-Jun-20 18:00N 31°16' W 126°26'1 1.0 1020.9 18.0
2017-Jun-20 17:00N 31°16' W 126°25'1 0.8 1020.4 18.0
2017-Jun-20 16:00N 31°16' W 126°25'0 0.0 1020.0 18.0
2017-Jun-20 15:00N 31°16' W 126°25'1 0.6 1019.1 17.9
2017-Jun-20 14:00N 31°17' W 126°25'1 0.5 1018.9 17.9
2017-Jun-20 13:00N 31°17' W 126°25'1 1.2
2017-Jun-20 12:00N 31°17' W 126°26'0 0.0 1018.2 17.9
2017-Jun-20 11:00N 31°17' W 126°26'0 0.0 1018.4 17.9
2017-Jun-20 10:00N 31°17' W 126°26'2 0.5 1018.2 17.9
2017-Jun-20 06:00N 31°19' W 126°25'1 0.8 1018.7 18.0
2017-Jun-20 05:00N 31°20' W 126°25'1 0.8 1018.4 18.0
2017-Jun-20 04:00N 31°20' W 126°24'0 0.0 1017.8 18.0
2017-Jun-20 03:00N 31°20' W 126°24'1 1.2 1017.2 18.0
2017-Jun-20 02:00N 31°22' W 126°24'0 0.0 1017.1 18.1
2017-Jun-20 01:00N 31°22' W 126°24'2 1.6 1016.9 18.1
2017-Jun-20 00:00N 31°23' W 126°23'0 0.0 1016.8 18.1
2017-Jun-19 23:00N 31°23' W 126°23'0 0.0 1017.0 18.1
2017-Jun-19 22:00N 31°23' W 126°23'2 2.4 1017.2 18.1
2017-Jun-19 21:00N 31°25' W 126°25'1 0.3 1017.4 18.0
2017-Jun-19 19:00N 31°25' W 126°25'1 0.8 1017.3 18.0
2017-Jun-19 18:00N 31°26' W 126°25'1 0.8 1017.2 18.0
2017-Jun-19 17:00N 31°26' W 126°25'1 0.5 1017.1 18.0
2017-Jun-19 16:00N 31°26' W 126°25'1 1.3 1017.1 18.0
2017-Jun-19 15:00N 31°28' W 126°25'1 1.2 1016.6 18.0
2017-Jun-19 14:00N 31°29' W 126°25'1 1.0 1016.3 18.0
2017-Jun-19 13:00N 31°29' W 126°26'0 0.0 1015.4 18.0
2017-Jun-19 12:00N 31°29' W 126°26'1 1.2 1015.2 18.0
2017-Jun-19 11:00N 31°29' W 126°27'4 0.7 1015.2 18.0
2017-Jun-19 06:00N 31°31' W 126°23'0 0.0 1015.6 18.0
2017-Jun-19 05:00N 31°31' W 126°23'2 1.6 1015.4 18.0
2017-Jun-19 04:00N 31°32' W 126°22'1 0.6 1014.8 18.0
2017-Jun-19 03:00N 31°33' W 126°22'1 0.8 1012.9 18.0
2017-Jun-19 02:00N 31°34' W 126°22'2 1.8 1013.2 18.0
2017-Jun-19 01:00N 31°35' W 126°22'0 0.0 1015.3 18.0
2017-Jun-19 00:00N 31°35' W 126°22'0 0.0 1015.8 18.0
2017-Jun-18 23:00N 31°35' W 126°22'1 0.7 1015.8 18.0
2017-Jun-18 21:00N 31°37' W 126°21'1 0.7 1016.3 18.0
2017-Jun-18 19:00N 31°38' W 126°20'1 0.8 1016.4 18.0
2017-Jun-18 18:00N 31°38' W 126°21'1 1.2 1016.4 17.9
2017-Jun-18 17:00N 31°39' W 126°20'1 1.3 1016.0 17.9
2017-Jun-18 16:00N 31°40' W 126°20'1 0.8 1016.1 17.9
2017-Jun-18 15:00N 31°41' W 126°20'0 0.0 1016.0 17.9
2017-Jun-18 14:00N 31°41' W 126°20'2 1.5 1016.1 17.9
2017-Jun-18 13:00N 31°41' W 126°22'3 3.2 1015.7 17.9
2017-Jun-18 12:00N 31°43' W 126°19'3 2.6 1015.8 17.8
2017-Jun-18 11:00N 31°41' W 126°20'3 2.6 1015.8 17.8
2017-Jun-18 10:00N 31°43' W 126°19'1 0.2 1016.4 17.7
2017-Jun-18 06:00N 31°44' W 126°19'0 0.0 1018.7 17.7
2017-Jun-18 05:00N 31°44' W 126°19'1 0.6 1018.5 17.8
2017-Jun-18 04:00N 31°44' W 126°19'1 0.6 1018.1 17.8
2017-Jun-18 03:00N 31°45' W 126°19'1 1.2 1017.9 17.8
2017-Jun-18 02:00N 31°46' W 126°19'1 1.2 1017.8 17.8
2017-Jun-18 01:00N 31°47' W 126°19'0 0.0 1018.1 17.8
2017-Jun-18 00:00N 31°47' W 126°19'0 0.0 1018.5 17.8
2017-Jun-17 23:00N 31°47' W 126°19'2 1.2 1018.9 17.8
2017-Jun-17 21:00N 31°50' W 126°19'1 0.4 1019.1 17.8
2017-Jun-17 19:00N 31°49' W 126°19'1 0.8 1019.6 17.8
2017-Jun-17 18:00N 31°50' W 126°19'1 1.2 1019.6 17.7
2017-Jun-17 17:00N 31°51' W 126°19'0 0.0 1019.7 17.7
2017-Jun-17 16:00N 31°51' W 126°19'1 0.5 1019.7 17.7
2017-Jun-17 15:00N 31°51' W 126°19'1 0.5 1019.6 17.6
2017-Jun-17 14:00N 31°51' W 126°19'1 1.0 1019.2 17.6
2017-Jun-17 13:00N 31°51' W 126°18'1 0.6 1019.0 17.6
2017-Jun-17 12:00N 31°52' W 126°18'1 0.6 1019.2 17.7
2017-Jun-17 11:00N 31°52' W 126°18'2 1.9 1019.6 17.7
2017-Jun-17 10:00N 31°54' W 126°17'1 0.2 1019.8 17.7
2017-Jun-17 06:00N 31°55' W 126°17'1 1.2 1020.8 17.7
2017-Jun-17 05:00N 31°56' W 126°17'1 0.8 1020.5 17.7
2017-Jun-17 04:00N 31°56' W 126°16'1 0.6 1020.1 17.8
2017-Jun-17 03:00N 31°57' W 126°16'1 0.5 1020.0 17.8
2017-Jun-17 02:00N 31°57' W 126°17'2 1.8 1019.9 17.8
2017-Jun-17 01:00N 31°59' W 126°17'0 0.0 1019.9 17.8
2017-Jun-17 00:00N 31°59' W 126°17'1 0.5 1020.2 17.8
2017-Jun-16 23:00N 31°59' W 126°17'0 0.0 1020.7 17.8
2017-Jun-16 22:00N 31°59' W 126°17'0 0.0 1021.1 17.8
2017-Jun-16 21:00N 31°59' W 126°17'1 0.6 1021.5 17.8
2017-Jun-16 19:00N 32°00' W 126°17'1 0.8 1022.3 17.8
2017-Jun-16 18:00N 32°01' W 126°18'1 0.5 1022.3 17.8
2017-Jun-16 17:00N 32°01' W 126°17'0 0.0 1022.3 17.8
2017-Jun-16 16:00N 32°01' W 126°17'0 0.0 1022.2 17.7
2017-Jun-16 15:00N 32°01' W 126°17'1 1.2 1022.0 17.7
2017-Jun-16 14:00N 32°01' W 126°16'0 0.0 1021.7 17.6
2017-Jun-16 13:00N 32°01' W 126°16'2 1.6 1021.6 17.6
2017-Jun-16 12:00N 32°02' W 126°15'0 0.0 1021.5 17.5
2017-Jun-16 11:00N 32°02' W 126°15'3 3.0 1021.5 17.5
2017-Jun-16 10:00N 32°05' W 126°15'0 0.0 1021.8 17.5
2017-Jun-16 07:00N 32°05' W 126°15'1 0.8 1022.7 17.5
2017-Jun-16 06:00N 32°06' W 126°16'1 0.8 1022.8 17.5
2017-Jun-16 05:00N 32°07' W 126°15'1 1.2 1022.7 17.5
2017-Jun-16 04:00N 32°08' W 126°15'1 0.8 1022.5 17.6
2017-Jun-16 03:00N 32°07' W 126°16'1 0.6 1022.4 17.6
2017-Jun-16 02:00N 32°08' W 126°16'0 0.0 1022.3 17.6
2017-Jun-16 01:00N 32°08' W 126°16'1 0.6 1022.4 17.6
2017-Jun-16 00:00N 32°08' W 126°16'1 0.6 1022.6 17.6
2017-Jun-15 23:00N 32°09' W 126°16'0 0.0 1022.8 17.6
2017-Jun-15 22:00N 32°09' W 126°16'0 0.0 1023.0 17.6
2017-Jun-15 21:00N 32°09' W 126°16'2 1.2 1023.0 17.6
2017-Jun-15 19:00N 32°11' W 126°15'0 0.0 1023.2 17.6
2017-Jun-15 18:00N 32°11' W 126°15'1 0.8 1023.2 17.6
2017-Jun-15 17:00N 32°12' W 126°14'0 0.0 1022.9 17.6
2017-Jun-15 16:00N 32°12' W 126°14'1 1.2 1022.6 17.6
2017-Jun-15 15:00N 32°13' W 126°14'0 0.0 1022.0 17.6
2017-Jun-15 14:00N 32°13' W 126°14'1 0.5 1021.6 17.6
2017-Jun-15 13:00N 32°13' W 126°14'1 1.2 1021.2 17.6
2017-Jun-15 12:00N 32°14' W 126°14'0 0.0 1020.9 17.6
2017-Jun-15 11:00N 32°14' W 126°14'2 1.8 1020.8 17.6
2017-Jun-15 10:00N 32°16' W 126°14'1 0.1 1020.9 17.7
2017-Jun-15 06:00N 32°17' W 126°14'1 0.6 1021.9 17.7
2017-Jun-15 05:00N 32°17' W 126°14'1 0.6 1021.3 17.7
2017-Jun-15 04:00N 32°18' W 126°14'1 0.5 1021.0 17.7
2017-Jun-15 03:00N 32°18' W 126°13'1 0.5 1020.7 17.7
2017-Jun-15 02:00N 32°18' W 126°14'1 0.6 1020.6 17.7
2017-Jun-15 01:00N 32°19' W 126°14'1 0.8 1020.5 17.7
2017-Jun-15 00:00N 32°19' W 126°13'1 0.8 1020.7 17.7
2017-Jun-14 23:00N 32°20' W 126°13'0 0.0 1020.8 17.6
2017-Jun-14 22:00N 32°20' W 126°13'2 0.6 1021.0 17.6
2017-Jun-14 19:00N 32°22' W 126°13'0 0.0 1021.7 17.5
2017-Jun-14 18:00N 32°22' W 126°13'0 0.0 1021.7 17.5
2017-Jun-14 17:00N 32°22' W 126°13'1 0.8 1021.3 17.5
2017-Jun-14 16:00N 32°22' W 126°13'1 0.8 1021.3 17.4
2017-Jun-14 15:00N 32°23' W 126°13'   1021.1 17.4

Dump ship's entire track history